sensor_id;sensor_type;location;lat;lon;timestamp;temperature;humidity
16491;DHT22;8356;51.214;3.270;2022-10-16T00:01:21;409.70;2355.20
16491;DHT22;8356;51.214;3.270;2022-10-16T00:03:48;409.70;2355.20
16491;DHT22;8356;51.214;3.270;2022-10-16T00:06:15;410.00;2355.20
16491;DHT22;8356;51.214;3.270;2022-10-16T00:08:41;384.90;2329.60
16491;DHT22;8356;51.214;3.270;2022-10-16T00:11:10;409.60;2355.20
16491;DHT22;8356;51.214;3.270;2022-10-16T00:13:37;409.60;2355.20
16491;DHT22;8356;51.214;3.270;2022-10-16T00:16:03;384.90;2329.60
16491;DHT22;8356;51.214;3.270;2022-10-16T00:18:30;409.60;2355.20
16491;DHT22;8356;51.214;3.270;2022-10-16T00:21:01;409.60;2355.20
16491;DHT22;8356;51.214;3.270;2022-10-16T00:23:26;409.60;2355.20
16491;DHT22;8356;51.214;3.270;2022-10-16T00:25:57;409.60;2355.20
16491;DHT22;8356;51.214;3.270;2022-10-16T00:28:23;409.60;2355.20
16491;DHT22;8356;51.214;3.270;2022-10-16T00:30:49;384.90;2329.60
16491;DHT22;8356;51.214;3.270;2022-10-16T00:33:14;384.90;2329.60
16491;DHT22;8356;51.214;3.270;2022-10-16T00:35:40;384.90;2329.60
16491;DHT22;8356;51.214;3.270;2022-10-16T00:38:05;409.60;2355.20
16491;DHT22;8356;51.214;3.270;2022-10-16T00:40:31;409.60;2355.20
16491;DHT22;8356;51.214;3.270;2022-10-16T00:42:57;409.60;2355.20
16491;DHT22;8356;51.214;3.270;2022-10-16T00:45:23;409.60;2355.20
16491;DHT22;8356;51.214;3.270;2022-10-16T00:47:50;409.60;2355.20
16491;DHT22;8356;51.214;3.270;2022-10-16T00:50:32;384.90;2329.60
16491;DHT22;8356;51.214;3.270;2022-10-16T00:52:59;384.90;2329.60
16491;DHT22;8356;51.214;3.270;2022-10-16T00:55:26;409.60;2355.20
16491;DHT22;8356;51.214;3.270;2022-10-16T00:57:53;409.60;2355.20
16491;DHT22;8356;51.214;3.270;2022-10-16T01:00:23;409.60;2355.20
16491;DHT22;8356;51.214;3.270;2022-10-16T01:03:00;409.60;2355.20
16491;DHT22;8356;51.214;3.270;2022-10-16T01:05:33;409.60;2355.20
16491;DHT22;8356;51.214;3.270;2022-10-16T01:08:17;409.60;2355.20
16491;DHT22;8356;51.214;3.270;2022-10-16T01:11:04;409.60;2355.20
16491;DHT22;8356;51.214;3.270;2022-10-16T01:13:38;409.60;2355.20
16491;DHT22;8356;51.214;3.270;2022-10-16T01:18:42;409.60;2355.20
16491;DHT22;8356;51.214;3.270;2022-10-16T01:21:13;409.60;2355.20
16491;DHT22;8356;51.214;3.270;2022-10-16T01:26:31;409.60;2355.20
16491;DHT22;8356;51.214;3.270;2022-10-16T01:29:25;409.60;2355.20
16491;DHT22;8356;51.214;3.270;2022-10-16T01:32:00;409.60;2355.20
16491;DHT22;8356;51.214;3.270;2022-10-16T01:34:43;409.60;2355.20
16491;DHT22;8356;51.214;3.270;2022-10-16T01:37:29;409.60;2355.20
16491;DHT22;8356;51.214;3.270;2022-10-16T01:39:59;409.60;2355.20
16491;DHT22;8356;51.214;3.270;2022-10-16T01:42:37;409.60;2355.20
16491;DHT22;8356;51.214;3.270;2022-10-16T01:45:05;384.90;2329.60
16491;DHT22;8356;51.214;3.270;2022-10-16T01:47:33;384.90;2329.60
16491;DHT22;8356;51.214;3.270;2022-10-16T01:50:02;384.90;2329.60
16491;DHT22;8356;51.214;3.270;2022-10-16T01:52:32;384.90;2329.60
16491;DHT22;8356;51.214;3.270;2022-10-16T01:55:02;384.90;2329.60
16491;DHT22;8356;51.214;3.270;2022-10-16T01:57:29;384.90;2329.60
16491;DHT22;8356;51.214;3.270;2022-10-16T02:00:00;384.90;2329.60
16491;DHT22;8356;51.214;3.270;2022-10-16T02:02:28;384.80;2329.60
16491;DHT22;8356;51.214;3.270;2022-10-16T02:04:58;384.80;2329.60
16491;DHT22;8356;51.214;3.270;2022-10-16T02:07:25;384.80;2329.60
16491;DHT22;8356;51.214;3.270;2022-10-16T02:09:51;384.70;2329.60
16491;DHT22;8356;51.214;3.270;2022-10-16T02:12:25;384.70;2329.60
16491;DHT22;8356;51.214;3.270;2022-10-16T02:14:52;384.70;2329.60
16491;DHT22;8356;51.214;3.270;2022-10-16T02:17:19;384.70;2329.60
16491;DHT22;8356;51.214;3.270;2022-10-16T02:19:46;384.70;2329.60
16491;DHT22;8356;51.214;3.270;2022-10-16T02:22:21;384.70;2329.60
16491;DHT22;8356;51.214;3.270;2022-10-16T02:24:56;384.70;2329.60
16491;DHT22;8356;51.214;3.270;2022-10-16T02:30:17;384.70;2329.60
16491;DHT22;8356;51.214;3.270;2022-10-16T02:32:47;384.70;2329.60
16491;DHT22;8356;51.214;3.270;2022-10-16T02:35:17;384.70;2329.60
16491;DHT22;8356;51.214;3.270;2022-10-16T02:37:45;384.60;2329.60
16491;DHT22;8356;51.214;3.270;2022-10-16T02:40:12;384.60;2329.60
16491;DHT22;8356;51.214;3.270;2022-10-16T02:42:39;384.60;2329.60
16491;DHT22;8356;51.214;3.270;2022-10-16T02:45:07;384.60;2329.60
16491;DHT22;8356;51.214;3.270;2022-10-16T02:47:33;384.60;2329.60
16491;DHT22;8356;51.214;3.270;2022-10-16T02:49:59;384.50;2329.60
16491;DHT22;8356;51.214;3.270;2022-10-16T02:52:24;384.50;2329.60
16491;DHT22;8356;51.214;3.270;2022-10-16T02:54:50;384.50;2329.60
16491;DHT22;8356;51.214;3.270;2022-10-16T02:57:16;384.00;2329.60
16491;DHT22;8356;51.214;3.270;2022-10-16T02:59:41;384.50;2329.60
16491;DHT22;8356;51.214;3.270;2022-10-16T03:02:07;384.60;2329.60
16491;DHT22;8356;51.214;3.270;2022-10-16T03:04:33;384.50;2329.60
16491;DHT22;8356;51.214;3.270;2022-10-16T03:06:58;384.50;2329.60
16491;DHT22;8356;51.214;3.270;2022-10-16T03:09:24;384.50;2329.60
16491;DHT22;8356;51.214;3.270;2022-10-16T03:11:49;384.50;2329.60
16491;DHT22;8356;51.214;3.270;2022-10-16T03:14:15;384.50;2329.60
16491;DHT22;8356;51.214;3.270;2022-10-16T03:16:41;384.40;2329.60
16491;DHT22;8356;51.214;3.270;2022-10-16T03:19:06;384.40;2329.60
16491;DHT22;8356;51.214;3.270;2022-10-16T03:21:32;384.30;2329.60
16491;DHT22;8356;51.214;3.270;2022-10-16T03:23:57;384.30;2329.60
16491;DHT22;8356;51.214;3.270;2022-10-16T03:26:23;384.30;2329.60
16491;DHT22;8356;51.214;3.270;2022-10-16T03:28:49;384.30;2329.60
16491;DHT22;8356;51.214;3.270;2022-10-16T03:31:14;384.30;2329.60
16491;DHT22;8356;51.214;3.270;2022-10-16T03:33:40;384.30;2329.60
16491;DHT22;8356;51.214;3.270;2022-10-16T03:36:05;384.30;2329.60
16491;DHT22;8356;51.214;3.270;2022-10-16T03:38:32;384.30;2329.60
16491;DHT22;8356;51.214;3.270;2022-10-16T03:40:58;384.30;2329.60
16491;DHT22;8356;51.214;3.270;2022-10-16T03:43:23;384.30;2329.60
16491;DHT22;8356;51.214;3.270;2022-10-16T03:45:50;384.30;2329.60
16491;DHT22;8356;51.214;3.270;2022-10-16T03:48:17;384.30;2329.60
16491;DHT22;8356;51.214;3.270;2022-10-16T03:50:43;384.50;2329.60
16491;DHT22;8356;51.214;3.270;2022-10-16T03:53:08;384.20;2329.60
16491;DHT22;8356;51.214;3.270;2022-10-16T03:55:34;384.20;2329.60
16491;DHT22;8356;51.214;3.270;2022-10-16T03:58:00;384.20;2329.60
16491;DHT22;8356;51.214;3.270;2022-10-16T04:00:26;384.20;2329.60
16491;DHT22;8356;51.214;3.270;2022-10-16T04:02:52;384.20;2329.60
16491;DHT22;8356;51.214;3.270;2022-10-16T04:05:17;384.20;2329.60
16491;DHT22;8356;51.214;3.270;2022-10-16T04:07:43;384.20;2329.60
16491;DHT22;8356;51.214;3.270;2022-10-16T04:10:09;384.20;2329.60
16491;DHT22;8356;51.214;3.270;2022-10-16T04:12:35;384.30;2329.60
16491;DHT22;8356;51.214;3.270;2022-10-16T04:15:01;384.30;2329.60
16491;DHT22;8356;51.214;3.270;2022-10-16T04:17:27;384.30;2329.60
16491;DHT22;8356;51.214;3.270;2022-10-16T04:19:53;384.40;2329.60
16491;DHT22;8356;51.214;3.270;2022-10-16T04:22:18;384.40;2329.60
16491;DHT22;8356;51.214;3.270;2022-10-16T04:24:44;384.40;2329.60
16491;DHT22;8356;51.214;3.270;2022-10-16T04:27:09;384.30;2329.60
16491;DHT22;8356;51.214;3.270;2022-10-16T04:29:35;384.40;2329.60
16491;DHT22;8356;51.214;3.270;2022-10-16T04:32:00;384.30;2329.60
16491;DHT22;8356;51.214;3.270;2022-10-16T04:34:26;384.40;2329.60
16491;DHT22;8356;51.214;3.270;2022-10-16T04:36:52;384.30;2329.60
16491;DHT22;8356;51.214;3.270;2022-10-16T04:39:18;384.30;2329.60
16491;DHT22;8356;51.214;3.270;2022-10-16T04:41:43;384.30;2329.60
16491;DHT22;8356;51.214;3.270;2022-10-16T04:44:09;384.20;2329.60
16491;DHT22;8356;51.214;3.270;2022-10-16T04:46:35;384.20;2329.60
16491;DHT22;8356;51.214;3.270;2022-10-16T04:49:00;384.30;2329.60
16491;DHT22;8356;51.214;3.270;2022-10-16T04:51:26;384.30;2329.60
16491;DHT22;8356;51.214;3.270;2022-10-16T04:53:53;384.20;2329.60
16491;DHT22;8356;51.214;3.270;2022-10-16T04:56:20;384.20;2329.60
16491;DHT22;8356;51.214;3.270;2022-10-16T04:58:46;384.30;2329.60
16491;DHT22;8356;51.214;3.270;2022-10-16T05:01:12;384.20;2329.60
16491;DHT22;8356;51.214;3.270;2022-10-16T05:03:38;384.30;2329.60
16491;DHT22;8356;51.214;3.270;2022-10-16T05:06:05;384.10;2329.60
16491;DHT22;8356;51.214;3.270;2022-10-16T05:08:31;384.20;2329.60
16491;DHT22;8356;51.214;3.270;2022-10-16T05:10:57;384.20;2329.60
16491;DHT22;8356;51.214;3.270;2022-10-16T05:13:22;384.20;2329.60
16491;DHT22;8356;51.214;3.270;2022-10-16T05:15:49;384.20;2329.60
16491;DHT22;8356;51.214;3.270;2022-10-16T05:18:15;384.20;2329.60
16491;DHT22;8356;51.214;3.270;2022-10-16T05:20:41;384.20;2329.60
16491;DHT22;8356;51.214;3.270;2022-10-16T05:23:07;384.20;2329.60
16491;DHT22;8356;51.214;3.270;2022-10-16T05:25:33;384.30;2329.60
16491;DHT22;8356;51.214;3.270;2022-10-16T05:27:58;384.30;2329.60
16491;DHT22;8356;51.214;3.270;2022-10-16T05:30:24;384.30;2329.60
16491;DHT22;8356;51.214;3.270;2022-10-16T05:32:50;384.30;2329.60
16491;DHT22;8356;51.214;3.270;2022-10-16T05:35:17;384.70;2329.60
16491;DHT22;8356;51.214;3.270;2022-10-16T05:37:43;384.10;2329.60
16491;DHT22;8356;51.214;3.270;2022-10-16T05:40:10;384.40;2329.60
16491;DHT22;8356;51.214;3.270;2022-10-16T05:42:36;384.40;2329.60
16491;DHT22;8356;51.214;3.270;2022-10-16T05:45:03;384.30;2329.60
16491;DHT22;8356;51.214;3.270;2022-10-16T05:47:29;384.40;2329.60
16491;DHT22;8356;51.214;3.270;2022-10-16T05:49:54;384.40;2329.60
16491;DHT22;8356;51.214;3.270;2022-10-16T05:52:21;384.30;2329.60
16491;DHT22;8356;51.214;3.270;2022-10-16T05:54:46;384.30;2329.60
16491;DHT22;8356;51.214;3.270;2022-10-16T05:57:12;384.20;2329.60
16491;DHT22;8356;51.214;3.270;2022-10-16T05:59:37;384.30;2329.60
16491;DHT22;8356;51.214;3.270;2022-10-16T06:02:03;384.20;2329.60
16491;DHT22;8356;51.214;3.270;2022-10-16T06:04:29;384.20;2329.60
16491;DHT22;8356;51.214;3.270;2022-10-16T06:06:58;384.20;2329.60
16491;DHT22;8356;51.214;3.270;2022-10-16T06:09:25;358.90;2329.60
16491;DHT22;8356;51.214;3.270;2022-10-16T06:11:51;384.20;2329.60
16491;DHT22;8356;51.214;3.270;2022-10-16T06:14:17;384.10;2329.60
16491;DHT22;8356;51.214;3.270;2022-10-16T06:16:42;384.10;2329.60
16491;DHT22;8356;51.214;3.270;2022-10-16T06:19:08;384.10;2329.60
16491;DHT22;8356;51.214;3.270;2022-10-16T06:21:34;384.10;2329.60
16491;DHT22;8356;51.214;3.270;2022-10-16T06:24:00;384.10;2329.60
16491;DHT22;8356;51.214;3.270;2022-10-16T06:26:28;384.10;2329.60
16491;DHT22;8356;51.214;3.270;2022-10-16T06:28:55;384.10;2329.60
16491;DHT22;8356;51.214;3.270;2022-10-16T06:31:22;384.20;2329.60
16491;DHT22;8356;51.214;3.270;2022-10-16T06:33:51;384.10;2329.60
16491;DHT22;8356;51.214;3.270;2022-10-16T06:36:17;384.10;2329.60
16491;DHT22;8356;51.214;3.270;2022-10-16T06:38:43;384.10;2329.60
16491;DHT22;8356;51.214;3.270;2022-10-16T06:41:12;384.10;2329.60
16491;DHT22;8356;51.214;3.270;2022-10-16T06:43:38;384.10;2329.60
16491;DHT22;8356;51.214;3.270;2022-10-16T06:46:05;384.10;2329.60
16491;DHT22;8356;51.214;3.270;2022-10-16T06:48:33;384.20;2329.60
16491;DHT22;8356;51.214;3.270;2022-10-16T06:53:34;384.10;2329.60
16491;DHT22;8356;51.214;3.270;2022-10-16T06:56:11;384.10;2329.60
16491;DHT22;8356;51.214;3.270;2022-10-16T06:58:37;384.10;2329.60
16491;DHT22;8356;51.214;3.270;2022-10-16T07:01:04;384.10;2329.60
16491;DHT22;8356;51.214;3.270;2022-10-16T07:03:30;384.20;2329.60
16491;DHT22;8356;51.214;3.270;2022-10-16T07:05:56;384.10;2329.60
16491;DHT22;8356;51.214;3.270;2022-10-16T07:08:22;384.10;2329.60
16491;DHT22;8356;51.214;3.270;2022-10-16T07:10:48;384.20;2329.60
16491;DHT22;8356;51.214;3.270;2022-10-16T07:13:14;384.30;2329.60
16491;DHT22;8356;51.214;3.270;2022-10-16T07:15:40;384.30;2329.60
16491;DHT22;8356;51.214;3.270;2022-10-16T07:18:06;384.30;2329.60
16491;DHT22;8356;51.214;3.270;2022-10-16T07:20:32;384.40;2329.60
16491;DHT22;8356;51.214;3.270;2022-10-16T07:22:58;384.40;2329.60
16491;DHT22;8356;51.214;3.270;2022-10-16T07:25:24;384.40;2329.60
16491;DHT22;8356;51.214;3.270;2022-10-16T07:27:49;384.50;2329.60
16491;DHT22;8356;51.214;3.270;2022-10-16T07:30:15;384.60;2329.60
16491;DHT22;8356;51.214;3.270;2022-10-16T07:32:41;384.70;2329.60
16491;DHT22;8356;51.214;3.270;2022-10-16T07:35:07;384.80;2329.60
16491;DHT22;8356;51.214;3.270;2022-10-16T07:37:32;384.80;2329.60
16491;DHT22;8356;51.214;3.270;2022-10-16T07:39:58;384.90;2329.60
16491;DHT22;8356;51.214;3.270;2022-10-16T07:42:24;384.90;2329.60
16491;DHT22;8356;51.214;3.270;2022-10-16T07:44:49;384.90;2329.60
16491;DHT22;8356;51.214;3.270;2022-10-16T07:47:15;384.90;2329.60
16491;DHT22;8356;51.214;3.270;2022-10-16T07:49:40;409.60;2355.20
16491;DHT22;8356;51.214;3.270;2022-10-16T07:52:07;409.60;2355.20
16491;DHT22;8356;51.214;3.270;2022-10-16T07:54:32;409.80;2355.20
16491;DHT22;8356;51.214;3.270;2022-10-16T07:56:58;409.90;2355.20
16491;DHT22;8356;51.214;3.270;2022-10-16T07:59:23;410.00;2355.20
16491;DHT22;8356;51.214;3.270;2022-10-16T08:01:49;410.10;2355.20
16491;DHT22;8356;51.214;3.270;2022-10-16T08:04:15;410.20;2355.20
16491;DHT22;8356;51.214;3.270;2022-10-16T08:06:40;410.20;2355.20
16491;DHT22;8356;51.214;3.270;2022-10-16T08:09:07;410.30;2355.20
16491;DHT22;8356;51.214;3.270;2022-10-16T08:11:33;410.50;2355.20
16491;DHT22;8356;51.214;3.270;2022-10-16T08:13:59;435.20;2355.20
16491;DHT22;8356;51.214;3.270;2022-10-16T08:16:24;435.30;2355.20
16491;DHT22;8356;51.214;3.270;2022-10-16T08:18:50;435.40;2355.20
16491;DHT22;8356;51.214;3.270;2022-10-16T08:21:19;435.50;2355.20
16491;DHT22;8356;51.214;3.270;2022-10-16T08:23:45;435.60;2355.20
16491;DHT22;8356;51.214;3.270;2022-10-16T08:26:12;435.70;2355.20
16491;DHT22;8356;51.214;3.270;2022-10-16T08:28:38;435.70;2355.20
16491;DHT22;8356;51.214;3.270;2022-10-16T08:31:10;435.80;2355.20
16491;DHT22;8356;51.214;3.270;2022-10-16T08:33:37;435.90;2355.20
16491;DHT22;8356;51.214;3.270;2022-10-16T08:36:04;436.10;2355.20
16491;DHT22;8356;51.214;3.270;2022-10-16T08:38:30;436.10;2355.20
16491;DHT22;8356;51.214;3.270;2022-10-16T08:41:18;460.80;2380.80
16491;DHT22;8356;51.214;3.270;2022-10-16T08:44:13;460.80;2380.80
16491;DHT22;8356;51.214;3.270;2022-10-16T08:49:30;461.20;2380.80
16491;DHT22;8356;51.214;3.270;2022-10-16T08:51:56;461.20;2380.80
16491;DHT22;8356;51.214;3.270;2022-10-16T08:57:00;461.30;2380.80
16491;DHT22;8356;51.214;3.270;2022-10-16T08:59:26;461.40;2380.80
16491;DHT22;8356;51.214;3.270;2022-10-16T09:01:52;461.40;2380.80
16491;DHT22;8356;51.214;3.270;2022-10-16T09:07:20;461.10;2380.80
16491;DHT22;8356;51.214;3.270;2022-10-16T09:12:43;461.00;2380.80
16491;DHT22;8356;51.214;3.270;2022-10-16T09:15:21;461.10;2380.80
16491;DHT22;8356;51.214;3.270;2022-10-16T09:25:30;461.40;2380.80
16491;DHT22;8356;51.214;3.270;2022-10-16T09:27:56;461.30;2380.80
16491;DHT22;8356;51.214;3.270;2022-10-16T09:30:22;461.50;2380.80
16491;DHT22;8356;51.214;3.270;2022-10-16T09:32:52;461.60;2380.80
16491;DHT22;8356;51.214;3.270;2022-10-16T09:35:33;486.40;2380.80
16491;DHT22;8356;51.214;3.270;2022-10-16T09:38:00;486.50;2380.80
16491;DHT22;8356;51.214;3.270;2022-10-16T09:45:59;487.10;2380.80
16491;DHT22;8356;51.214;3.270;2022-10-16T09:48:31;487.20;2380.80
16491;DHT22;8356;51.214;3.270;2022-10-16T09:51:00;487.30;2380.80
16491;DHT22;8356;51.214;3.270;2022-10-16T09:53:44;512.00;2380.80
16491;DHT22;8356;51.214;3.270;2022-10-16T09:56:20;512.00;2380.80
16491;DHT22;8356;51.214;3.270;2022-10-16T09:58:54;512.00;2380.80
16491;DHT22;8356;51.214;3.270;2022-10-16T10:01:22;512.00;2380.80
16491;DHT22;8356;51.214;3.270;2022-10-16T10:03:49;512.10;2380.80
16491;DHT22;8356;51.214;3.270;2022-10-16T10:06:23;512.10;2380.80
16491;DHT22;8356;51.214;3.270;2022-10-16T10:08:54;512.20;2380.80
16491;DHT22;8356;51.214;3.270;2022-10-16T10:11:42;512.10;2380.80
16491;DHT22;8356;51.214;3.270;2022-10-16T10:16:44;487.20;2380.80
16491;DHT22;8356;51.214;3.270;2022-10-16T10:19:18;487.20;2380.80
16491;DHT22;8356;51.214;3.270;2022-10-16T10:21:44;487.20;2380.80
16491;DHT22;8356;51.214;3.270;2022-10-16T10:24:14;487.30;2380.80
16491;DHT22;8356;51.214;3.270;2022-10-16T10:29:17;512.10;2380.80
16491;DHT22;8356;51.214;3.270;2022-10-16T10:32:02;512.20;2380.80
16491;DHT22;8356;51.214;3.270;2022-10-16T10:40:08;512.60;2380.80
16491;DHT22;8356;51.214;3.270;2022-10-16T10:42:59;512.80;2380.80
16491;DHT22;8356;51.214;3.270;2022-10-16T10:45:44;512.90;2380.80
16491;DHT22;8356;51.214;3.270;2022-10-16T10:50:58;537.80;2406.40
16491;DHT22;8356;51.214;3.270;2022-10-16T11:07:01;538.00;2406.40
16491;DHT22;8356;51.214;3.270;2022-10-16T11:09:28;538.00;2406.40
16491;DHT22;8356;51.214;3.270;2022-10-16T11:14:56;537.90;2406.40
16491;DHT22;8356;51.214;3.270;2022-10-16T11:18:02;537.70;2406.40
16491;DHT22;8356;51.214;3.270;2022-10-16T11:21:13;537.90;2406.40
16491;DHT22;8356;51.214;3.270;2022-10-16T11:25:48;537.90;2406.40
16491;DHT22;8356;51.214;3.270;2022-10-16T11:28:34;538.00;2406.40
16491;DHT22;8356;51.214;3.270;2022-10-16T11:31:16;537.70;2406.40
16491;DHT22;8356;51.214;3.270;2022-10-16T11:34:08;512.90;2380.80
16491;DHT22;8356;51.214;3.270;2022-10-16T11:36:46;512.90;2380.80
16491;DHT22;8356;51.214;3.270;2022-10-16T11:39:21;512.90;2380.80
16491;DHT22;8356;51.214;3.270;2022-10-16T11:44:51;537.70;2406.40
16491;DHT22;8356;51.214;3.270;2022-10-16T11:47:37;537.90;2406.40
16491;DHT22;8356;51.214;3.270;2022-10-16T11:50:20;538.10;2406.40
16491;DHT22;8356;51.214;3.270;2022-10-16T11:53:00;538.20;2406.40
16491;DHT22;8356;51.214;3.270;2022-10-16T11:55:37;538.40;2406.40
16491;DHT22;8356;51.214;3.270;2022-10-16T12:03:45;538.20;2406.40
16491;DHT22;8356;51.214;3.270;2022-10-16T12:06:25;538.10;2406.40
16491;DHT22;8356;51.214;3.270;2022-10-16T12:08:53;538.20;2406.40
16491;DHT22;8356;51.214;3.270;2022-10-16T12:11:30;538.40;2406.40
16491;DHT22;8356;51.214;3.270;2022-10-16T12:16:50;563.20;2432.00
16491;DHT22;8356;51.214;3.270;2022-10-16T12:19:17;563.20;2432.00
16491;DHT22;8356;51.214;3.270;2022-10-16T12:21:44;563.20;2432.00
16491;DHT22;8356;51.214;3.270;2022-10-16T12:24:33;563.20;2432.00
16491;DHT22;8356;51.214;3.270;2022-10-16T12:27:00;538.50;2406.40
16491;DHT22;8356;51.214;3.270;2022-10-16T12:29:40;538.50;2406.40
16491;DHT22;8356;51.214;3.270;2022-10-16T12:32:33;563.20;2432.00
16491;DHT22;8356;51.214;3.270;2022-10-16T12:35:01;563.20;2432.00
16491;DHT22;8356;51.214;3.270;2022-10-16T12:37:31;563.20;2432.00
16491;DHT22;8356;51.214;3.270;2022-10-16T12:39:59;563.20;2432.00
16491;DHT22;8356;51.214;3.270;2022-10-16T12:42:36;563.20;2432.00
16491;DHT22;8356;51.214;3.270;2022-10-16T12:45:26;563.20;2432.00
16491;DHT22;8356;51.214;3.270;2022-10-16T12:47:54;563.30;2432.00
16491;DHT22;8356;51.214;3.270;2022-10-16T12:50:35;563.20;2432.00
16491;DHT22;8356;51.214;3.270;2022-10-16T12:53:03;538.50;2406.40
16491;DHT22;8356;51.214;3.270;2022-10-16T12:55:39;538.40;2406.40
16491;DHT22;8356;51.214;3.270;2022-10-16T13:00:57;563.20;2432.00
16491;DHT22;8356;51.214;3.270;2022-10-16T13:06:22;538.50;2406.40
16491;DHT22;8356;51.214;3.270;2022-10-16T13:28:05;538.10;2406.40
16491;DHT22;8356;51.214;3.270;2022-10-16T13:30:51;538.00;2406.40
16491;DHT22;8356;51.214;3.270;2022-10-16T13:33:20;538.10;2406.40
16491;DHT22;8356;51.214;3.270;2022-10-16T13:35:54;538.10;2406.40
16491;DHT22;8356;51.214;3.270;2022-10-16T13:38:23;538.30;2406.40
16491;DHT22;8356;51.214;3.270;2022-10-16T13:41:13;538.20;2406.40
16491;DHT22;8356;51.214;3.270;2022-10-16T13:43:50;538.30;2406.40
16491;DHT22;8356;51.214;3.270;2022-10-16T13:46:20;538.20;2406.40
16491;DHT22;8356;51.214;3.270;2022-10-16T13:49:04;538.20;2406.40
16491;DHT22;8356;51.214;3.270;2022-10-16T13:51:31;538.20;2406.40
16491;DHT22;8356;51.214;3.270;2022-10-16T13:53:58;538.20;2406.40
16491;DHT22;8356;51.214;3.270;2022-10-16T13:56:29;538.30;2406.40
16491;DHT22;8356;51.214;3.270;2022-10-16T13:59:06;538.30;2406.40
16491;DHT22;8356;51.214;3.270;2022-10-16T14:01:40;538.40;2406.40
16491;DHT22;8356;51.214;3.270;2022-10-16T14:04:09;538.20;2406.40
16491;DHT22;8356;51.214;3.270;2022-10-16T14:06:36;538.20;2406.40
16491;DHT22;8356;51.214;3.270;2022-10-16T14:09:26;538.20;2406.40
16491;DHT22;8356;51.214;3.270;2022-10-16T14:11:59;538.20;2406.40
16491;DHT22;8356;51.214;3.270;2022-10-16T14:14:29;538.20;2406.40
16491;DHT22;8356;51.214;3.270;2022-10-16T14:16:56;538.20;2406.40
16491;DHT22;8356;51.214;3.270;2022-10-16T14:19:25;538.10;2406.40
16491;DHT22;8356;51.214;3.270;2022-10-16T14:21:52;538.10;2406.40
16491;DHT22;8356;51.214;3.270;2022-10-16T14:24:36;538.10;2406.40
16491;DHT22;8356;51.214;3.270;2022-10-16T14:27:20;538.20;2406.40
16491;DHT22;8356;51.214;3.270;2022-10-16T14:29:48;538.20;2406.40
16491;DHT22;8356;51.214;3.270;2022-10-16T14:32:22;538.10;2406.40
16491;DHT22;8356;51.214;3.270;2022-10-16T14:34:53;538.20;2406.40
16491;DHT22;8356;51.214;3.270;2022-10-16T14:37:28;537.90;2406.40
16491;DHT22;8356;51.214;3.270;2022-10-16T14:39:55;538.20;2406.40
16491;DHT22;8356;51.214;3.270;2022-10-16T14:42:22;538.30;2406.40
16491;DHT22;8356;51.214;3.270;2022-10-16T14:44:51;538.30;2406.40
16491;DHT22;8356;51.214;3.270;2022-10-16T14:47:22;538.20;2406.40
16491;DHT22;8356;51.214;3.270;2022-10-16T14:49:52;538.10;2406.40
16491;DHT22;8356;51.214;3.270;2022-10-16T14:52:19;538.10;2406.40
16491;DHT22;8356;51.214;3.270;2022-10-16T14:54:48;538.10;2406.40
16491;DHT22;8356;51.214;3.270;2022-10-16T14:57:19;538.00;2406.40
16491;DHT22;8356;51.214;3.270;2022-10-16T14:59:46;538.00;2406.40
16491;DHT22;8356;51.214;3.270;2022-10-16T15:04:48;538.00;2406.40
16491;DHT22;8356;51.214;3.270;2022-10-16T15:07:14;563.40;2432.00
16491;DHT22;8356;51.214;3.270;2022-10-16T15:09:39;537.90;2406.40
16491;DHT22;8356;51.214;3.270;2022-10-16T15:12:05;537.90;2406.40
16491;DHT22;8356;51.214;3.270;2022-10-16T15:14:31;537.80;2406.40
16491;DHT22;8356;51.214;3.270;2022-10-16T15:16:57;537.80;2406.40
16491;DHT22;8356;51.214;3.270;2022-10-16T15:19:22;537.70;2406.40
16491;DHT22;8356;51.214;3.270;2022-10-16T15:21:48;512.90;2380.80
16491;DHT22;8356;51.214;3.270;2022-10-16T15:24:14;512.90;2380.80
16491;DHT22;8356;51.214;3.270;2022-10-16T15:26:40;512.80;2380.80
16491;DHT22;8356;51.214;3.270;2022-10-16T15:29:06;512.80;2380.80
16491;DHT22;8356;51.214;3.270;2022-10-16T15:31:32;512.80;2380.80
16491;DHT22;8356;51.214;3.270;2022-10-16T15:33:57;512.80;2380.80
16491;DHT22;8356;51.214;3.270;2022-10-16T15:36:33;512.70;2380.80
16491;DHT22;8356;51.214;3.270;2022-10-16T15:39:01;512.60;2380.80
16491;DHT22;8356;51.214;3.270;2022-10-16T15:41:27;512.30;2380.80
16491;DHT22;8356;51.214;3.270;2022-10-16T15:43:53;512.40;2380.80
16491;DHT22;8356;51.214;3.270;2022-10-16T15:46:20;512.50;2380.80
16491;DHT22;8356;51.214;3.270;2022-10-16T15:48:51;512.40;2380.80
16491;DHT22;8356;51.214;3.270;2022-10-16T15:51:20;512.50;2380.80
16491;DHT22;8356;51.214;3.270;2022-10-16T15:53:46;512.50;2380.80
16491;DHT22;8356;51.214;3.270;2022-10-16T15:56:12;512.60;2380.80
16491;DHT22;8356;51.214;3.270;2022-10-16T15:58:38;512.50;2380.80
16491;DHT22;8356;51.214;3.270;2022-10-16T16:01:05;512.50;2380.80
16491;DHT22;8356;51.214;3.270;2022-10-16T16:03:31;512.40;2380.80
16491;DHT22;8356;51.214;3.270;2022-10-16T16:05:58;512.10;2380.80
16491;DHT22;8356;51.214;3.270;2022-10-16T16:08:28;512.40;2380.80
16491;DHT22;8356;51.214;3.270;2022-10-16T16:10:58;512.40;2380.80
16491;DHT22;8356;51.214;3.270;2022-10-16T16:13:24;512.30;2380.80
16491;DHT22;8356;51.214;3.270;2022-10-16T16:15:49;512.20;2380.80
16491;DHT22;8356;51.214;3.270;2022-10-16T16:18:15;512.20;2380.80
16491;DHT22;8356;51.214;3.270;2022-10-16T16:20:40;512.20;2380.80
16491;DHT22;8356;51.214;3.270;2022-10-16T16:23:06;512.10;2380.80
16491;DHT22;8356;51.214;3.270;2022-10-16T16:25:32;487.30;2380.80
16491;DHT22;8356;51.214;3.270;2022-10-16T16:27:57;487.20;2380.80
16491;DHT22;8356;51.214;3.270;2022-10-16T16:30:23;487.20;2380.80
16491;DHT22;8356;51.214;3.270;2022-10-16T16:32:49;487.30;2380.80
16491;DHT22;8356;51.214;3.270;2022-10-16T16:35:14;487.30;2380.80
16491;DHT22;8356;51.214;3.270;2022-10-16T16:37:40;487.20;2380.80
16491;DHT22;8356;51.214;3.270;2022-10-16T16:40:06;487.20;2380.80
16491;DHT22;8356;51.214;3.270;2022-10-16T16:42:31;487.30;2380.80
16491;DHT22;8356;51.214;3.270;2022-10-16T16:44:57;487.30;2380.80
16491;DHT22;8356;51.214;3.270;2022-10-16T16:47:23;487.20;2380.80
16491;DHT22;8356;51.214;3.270;2022-10-16T16:49:48;487.10;2380.80
16491;DHT22;8356;51.214;3.270;2022-10-16T16:52:15;487.10;2380.80
16491;DHT22;8356;51.214;3.270;2022-10-16T16:54:40;487.10;2380.80
16491;DHT22;8356;51.214;3.270;2022-10-16T16:57:06;487.20;2380.80
16491;DHT22;8356;51.214;3.270;2022-10-16T16:59:32;487.20;2380.80
16491;DHT22;8356;51.214;3.270;2022-10-16T17:02:01;487.20;2380.80